Time;durP1;ratioP1;P1;durP2;ratioP2;P2;SDS_P1;SDS_P2;PMS_P1;PMS_P2;Temp;Humidity;BMP_temperature;BMP_pressure;BME280_temperature;BME280_humidity;BME280_pressure;Samples;Min_cycle;Max_cycle;Signal;HPM_P1;HPM_P2
2022/07/16 00:02:50;;;;;;;0.50;0.50;;;15.90;61.50;;;16.19;46.53;95301.72;5026436;28;20222;-78
2022/07/16 00:05:17;;;;;;;0.60;0.60;;;15.90;61.30;;;16.16;46.64;95308.22;5016054;28;20215;-77
2022/07/16 00:07:44;;;;;;;0.60;0.60;;;15.90;61.40;;;16.11;46.88;95302.78;5033323;28;20279;-77
2022/07/16 00:10:12;;;;;;;0.40;0.40;;;15.90;61.30;;;16.04;46.56;95294.91;5010019;28;20212;-77
2022/07/16 00:12:39;;;;;;;0.50;0.50;;;15.80;61.30;;;16.02;46.66;95290.84;5021478;28;20224;-78
2022/07/16 00:15:07;;;;;;;0.40;0.40;;;15.80;61.40;;;15.95;46.89;95298.84;5028211;28;20209;-77
2022/07/16 00:17:35;;;;;;;0.57;0.57;;;15.70;61.50;;;15.91;46.81;95290.53;5028987;28;20209;-77
2022/07/16 00:20:04;;;;;;;0.50;0.50;;;15.70;61.60;;;15.91;47.24;95298.47;5027021;28;20200;-77
2022/07/16 00:22:32;;;;;;;0.50;0.50;;;15.70;62.10;;;15.89;47.02;95291.75;5012187;28;20228;-77
2022/07/16 00:24:59;;;;;;;0.60;0.60;;;15.60;61.60;;;15.84;46.98;95287.94;5012530;28;20189;-77
2022/07/16 00:27:26;;;;;;;0.52;0.52;;;15.60;61.60;;;15.84;47.51;95298.53;5015078;28;20208;-77
2022/07/16 00:29:53;;;;;;;0.60;0.60;;;15.60;62.70;;;15.80;47.33;95299.13;5010978;28;20193;-77
2022/07/16 00:32:21;;;;;;;0.50;0.50;;;15.60;61.90;;;15.75;47.87;95288.41;5031065;28;20692;-78
2022/07/16 00:34:48;;;;;;;0.50;0.50;;;15.50;62.10;;;15.76;48.07;95284.69;5032018;28;20568;-77
2022/07/16 00:37:15;;;;;;;0.80;0.80;;;15.50;62.10;;;15.74;47.29;95287.56;5031613;28;20234;-77
2022/07/16 00:39:42;;;;;;;0.60;0.60;;;15.50;62.10;;;15.72;48.01;95288.81;5028525;28;20283;-78
2022/07/16 00:42:10;;;;;;;0.50;0.50;;;15.50;62.20;;;15.68;47.95;95283.97;4999026;28;20300;-77
2022/07/16 00:44:39;;;;;;;0.60;0.60;;;15.50;62.30;;;15.66;47.99;95278.06;5031574;28;20218;-77
2022/07/16 00:47:06;;;;;;;0.70;0.70;;;15.50;62.50;;;15.64;48.10;95287.25;5011362;28;20220;-77
2022/07/16 00:49:34;;;;;;;0.60;0.60;;;15.40;62.40;;;15.61;48.44;95277.09;5015104;28;20212;-77
2022/07/16 00:52:01;;;;;;;0.60;0.60;;;15.40;62.60;;;15.59;48.33;95273.88;5015418;28;20242;-77
2022/07/16 00:54:28;;;;;;;0.60;0.60;;;15.40;62.60;;;15.58;48.05;95282.81;5031892;28;20647;-77
2022/07/16 00:56:55;;;;;;;0.50;0.50;;;15.40;62.60;;;15.53;48.31;95278.16;5024282;28;20223;-76
2022/07/16 00:59:24;;;;;;;0.50;0.50;;;15.30;62.60;;;15.52;47.93;95279.97;4995603;28;20219;-77
2022/07/16 01:01:51;;;;;;;0.50;0.50;;;15.30;62.50;;;15.49;48.15;95269.84;5011620;28;20406;-77
2022/07/16 01:04:19;;;;;;;0.70;0.70;;;15.30;62.60;;;15.48;48.04;95270.06;5015966;28;20188;-76
2022/07/16 01:06:47;;;;;;;0.50;0.50;;;15.20;61.80;;;15.43;48.30;95267.22;5029104;28;20303;-77
2022/07/16 01:09:15;;;;;;;0.50;0.50;;;15.20;62.60;;;15.40;48.08;95268.47;5029065;28;20711;-77
2022/07/16 01:11:44;;;;;;;0.50;0.50;;;15.20;62.90;;;15.37;48.29;95264.44;4994892;28;20999;-77
2022/07/16 01:14:13;;;;;;;0.50;0.50;;;15.10;62.70;;;15.34;48.28;95270.16;5013700;28;20238;-77
2022/07/16 01:16:41;;;;;;;0.60;0.60;;;15.10;62.70;;;15.23;48.31;95257.59;5030185;28;20250;-77
2022/07/16 01:19:10;;;;;;;0.60;0.60;;;15.10;62.80;;;15.23;48.47;95265.53;5031289;28;20562;-78
2022/07/16 01:21:37;;;;;;;0.70;0.70;;;15.00;63.00;;;15.24;48.66;95274.28;5014368;28;20227;-77
2022/07/16 01:24:05;;;;;;;0.55;0.55;;;15.00;62.90;;;15.21;48.60;95265.75;5014807;28;20250;-77
2022/07/16 01:26:32;;;;;;;0.60;0.60;;;15.00;63.00;;;15.18;48.31;95268.81;5026114;28;20303;-77
2022/07/16 01:29:00;;;;;;;0.50;0.50;;;14.90;62.90;;;15.16;48.34;95268.22;5014394;28;20699;-77
2022/07/16 01:31:27;;;;;;;0.55;0.55;;;14.90;63.00;;;15.12;48.60;95268.84;5003757;28;20216;-77
2022/07/16 01:36:40;;;;;;;0.50;0.50;;;14.80;63.00;;;15.08;48.55;95265.81;5011847;28;20278;-77
2022/07/16 01:39:07;;;;;;;0.75;0.75;;;14.90;63.00;;;15.08;48.47;95272.94;4994842;28;20222;-77
2022/07/16 01:41:34;;;;;;;0.50;0.50;;;14.80;63.10;;;15.08;48.49;95265.00;4999224;28;20588;-77
2022/07/16 01:44:01;;;;;;;0.60;0.60;;;14.80;63.10;;;15.03;48.65;95261.16;5020386;28;20226;-77
2022/07/16 01:46:29;;;;;;;0.60;0.60;;;14.80;63.20;;;15.05;48.90;95253.03;5038004;28;20222;-77
2022/07/16 01:48:57;;;;;;;0.50;0.50;;;14.80;63.50;;;15.06;48.98;95254.63;5013311;28;20204;-77
2022/07/16 01:51:24;;;;;;;0.70;0.70;;;14.80;63.50;;;15.09;49.28;95259.50;5000024;28;20231;-77
2022/07/16 01:53:51;;;;;;;0.50;0.50;;;14.80;63.60;;;15.13;49.38;95255.41;5017696;28;20246;-78
2022/07/16 01:56:18;;;;;;;0.60;0.60;;;14.80;63.80;;;15.16;49.44;95240.97;5034270;28;20232;-77
2022/07/16 01:58:46;;;;;;;0.50;0.50;;;14.80;63.90;;;15.28;49.30;95256.97;5034176;28;20743;-75
2022/07/16 02:01:13;;;;;;;0.60;0.60;;;14.80;63.90;;;15.30;49.38;95247.78;5026899;28;20246;-77
2022/07/16 02:03:42;;;;;;;0.70;0.70;;;15.00;64.00;;;15.32;49.45;95256.31;5034754;28;20630;-78
2022/07/16 02:06:09;;;;;;;0.50;0.50;;;15.00;64.80;;;15.32;49.53;95252.88;5036870;28;20278;-77
2022/07/16 02:08:37;;;;;;;0.50;0.50;;;15.00;64.00;;;15.33;49.54;95254.47;5036260;28;20192;-78
2022/07/16 02:11:04;;;;;;;0.60;0.60;;;15.00;64.00;;;15.33;49.47;95257.13;5010892;28;20228;-77
2022/07/16 02:13:31;;;;;;;0.60;0.60;;;15.00;64.10;;;15.30;50.05;95253.06;5015932;28;20196;-78
2022/07/16 02:15:59;;;;;;;0.40;0.40;;;15.00;64.00;;;15.28;49.60;95252.50;4985206;28;20230;-77
2022/07/16 02:18:26;;;;;;;0.80;0.80;;;15.00;64.10;;;15.26;49.54;95245.78;5019576;28;20228;-77
2022/07/16 02:20:54;;;;;;;0.55;0.55;;;15.00;64.10;;;15.23;49.52;95247.03;5014838;28;20224;-76
2022/07/16 02:23:22;;;;;;;0.70;0.70;;;14.90;64.00;;;15.24;49.58;95245.22;5000919;28;20216;-77
2022/07/16 02:25:49;;;;;;;0.60;0.60;;;15.00;64.20;;;15.23;49.93;95241.75;5017817;28;20746;-77
2022/07/16 02:28:16;;;;;;;0.70;0.70;;;14.90;64.20;;;15.22;49.64;95248.03;5027586;28;20465;-77
2022/07/16 02:30:47;;;;;;;0.60;0.60;;;14.90;64.30;;;15.23;49.92;95240.94;5021912;28;20220;-77
2022/07/16 02:33:18;;;;;;;0.40;0.40;;;14.90;64.70;;;15.24;50.10;95243.38;5001661;28;20246;-77
2022/07/16 02:35:45;;;;;;;0.50;0.50;;;15.00;64.70;;;15.27;49.77;95242.94;5001306;28;20315;-77
2022/07/16 02:38:14;;;;;;;0.60;0.60;;;15.00;64.60;;;15.29;49.90;95238.25;4994688;28;20200;-78
2022/07/16 02:40:43;;;;;;;0.40;0.40;;;15.00;64.70;;;15.29;49.87;95243.53;5014283;28;20221;-76
2022/07/16 02:43:11;;;;;;;0.70;0.70;;;15.00;64.60;;;15.30;49.99;95242.50;5027007;28;20581;-77
2022/07/16 02:45:42;;;;;;;0.60;0.60;;;15.00;64.70;;;15.29;49.62;95234.81;5001933;28;20216;-78
2022/07/16 02:48:10;;;;;;;0.60;0.60;;;15.00;64.80;;;15.28;49.95;95241.94;5003640;28;20202;-77
2022/07/16 02:50:39;;;;;;;0.50;0.50;;;14.90;64.60;;;15.26;50.03;95238.69;5000851;28;20587;-77
2022/07/16 02:53:08;;;;;;;0.40;0.40;;;14.90;64.60;;;15.22;50.27;95240.13;5010233;28;20211;-78
2022/07/16 02:55:35;;;;;;;0.57;0.57;;;14.90;64.70;;;15.20;50.18;95234.25;5025697;28;20216;-77
2022/07/16 02:58:03;;;;;;;0.60;0.60;;;14.90;64.70;;;15.21;50.31;95243.81;5000034;28;20299;-77
2022/07/16 03:00:31;;;;;;;0.55;0.55;;;14.90;64.80;;;15.19;49.79;95232.63;5013340;28;20236;-77
2022/07/16 03:02:58;;;;;;;0.75;0.75;;;14.90;64.70;;;15.17;50.84;95240.78;4997776;28;20306;-77
2022/07/16 03:05:26;;;;;;;0.80;0.80;;;14.90;64.80;;;15.14;50.59;95238.53;4990718;28;20277;-78
2022/07/16 03:07:54;;;;;;;0.40;0.40;;;14.90;65.00;;;15.08;50.76;95239.41;5017436;28;20583;-77
2022/07/16 03:10:21;;;;;;;0.50;0.50;;;14.90;64.80;;;15.07;50.72;95239.63;5032176;28;20216;-77
2022/07/16 03:12:48;;;;;;;0.60;0.60;;;14.80;64.90;;;15.04;50.86;95236.38;5016134;28;20212;-77
2022/07/16 03:15:15;;;;;;;0.70;0.70;;;14.80;65.00;;;15.02;50.94;95229.69;5015093;28;20602;-78
2022/07/16 03:17:42;;;;;;;0.60;0.60;;;14.80;65.00;;;15.02;50.89;95232.31;5015695;28;20211;-79
2022/07/16 03:20:12;;;;;;;0.50;0.50;;;14.90;65.10;;;15.00;51.13;95234.34;5026198;28;20202;-78
2022/07/16 03:22:45;;;;;;;0.60;0.60;;;14.80;65.10;;;14.99;51.30;95238.00;5012507;28;20307;-78
2022/07/16 03:25:14;;;;;;;0.60;0.60;;;14.80;65.60;;;14.97;51.54;95235.59;4994046;28;20211;-78
2022/07/16 03:27:41;;;;;;;0.60;0.60;;;14.80;65.30;;;14.96;51.79;95227.88;4997226;28;20613;-78
2022/07/16 03:30:09;;;;;;;0.60;0.60;;;14.80;65.40;;;14.95;51.80;95231.53;4996844;28;20621;-78
2022/07/16 03:32:37;;;;;;;0.60;0.60;;;14.80;65.50;;;14.93;51.67;95234.41;4996068;28;20200;-78
2022/07/16 03:35:07;;;;;;;0.55;0.55;;;14.80;65.50;;;14.94;51.43;95235.19;4985360;28;20638;-77
2022/07/16 03:38:57;;;;;;;0.57;0.57;;;14.70;65.50;;;14.91;51.17;95233.00;4981286;28;20204;-78
2022/07/16 03:40:22;;;;;;;0.50;0.50;;;14.70;65.30;;;14.89;51.35;95223.44;5012666;28;20212;-77
2022/07/16 03:42:49;;;;;;;0.50;0.50;;;14.70;65.30;;;14.85;51.28;95224.06;4993676;28;20234;-78
2022/07/16 03:45:17;;;;;;;0.60;0.60;;;14.70;65.40;;;14.82;52.19;95233.22;5013647;28;20255;-78
2022/07/16 03:47:44;;;;;;;0.60;0.60;;;14.70;65.60;;;14.79;52.36;95235.47;4997771;28;20616;-77
2022/07/16 03:50:12;;;;;;;0.70;0.70;;;14.60;65.70;;;14.75;51.92;95236.94;4983988;28;20295;-76
2022/07/16 03:52:44;;;;;;;0.60;0.60;;;14.60;65.50;;;14.70;51.72;95238.34;5018097;28;20759;-77
2022/07/16 03:55:12;;;;;;;0.60;0.60;;;14.60;65.60;;;14.68;52.00;95236.94;4996925;28;20207;-77
2022/07/16 03:57:40;;;;;;;0.60;0.60;;;14.50;65.60;;;14.65;51.73;95237.34;5029827;28;20304;-77
2022/07/16 04:00:09;;;;;;;0.80;0.80;;;14.50;65.60;;;14.61;51.72;95231.66;4997115;28;20192;-78
2022/07/16 04:02:36;;;;;;;0.60;0.60;;;14.50;65.90;;;14.59;51.57;95236.34;5011673;28;20684;-77
2022/07/16 04:05:05;;;;;;;0.50;0.50;;;14.40;65.80;;;14.60;52.56;95239.78;4994925;28;20203;-77
2022/07/16 04:07:32;;;;;;;0.80;0.80;;;14.40;66.00;;;14.58;52.69;95238.16;5012711;28;20208;-77
2022/07/16 04:09:59;;;;;;;0.50;0.50;;;14.40;66.10;;;14.59;52.44;95233.69;5012381;28;20296;-78
2022/07/16 04:12:26;;;;;;;0.50;0.50;;;14.40;66.10;;;14.57;53.06;95238.38;5004951;28;20215;-78
2022/07/16 04:14:53;;;;;;;0.50;0.50;;;14.40;66.30;;;14.58;53.49;95232.88;4996477;28;20200;-78
2022/07/16 04:17:21;;;;;;;0.73;0.73;;;14.50;66.70;;;14.61;52.88;95233.47;4996710;28;20205;-78
2022/07/16 04:19:48;;;;;;;0.70;0.70;;;14.50;66.70;;;14.64;53.04;95227.81;4982632;28;20199;-78
2022/07/16 04:22:15;;;;;;;0.60;0.60;;;14.50;66.90;;;14.69;53.21;95233.28;5013711;28;21072;-78
2022/07/16 04:24:42;;;;;;;0.70;0.70;;;14.50;67.10;;;14.76;52.96;95238.53;5028007;28;20257;-77
2022/07/16 04:27:09;;;;;;;0.50;0.50;;;14.60;67.20;;;14.82;52.86;95235.06;5015923;28;20215;-78
2022/07/16 04:29:37;;;;;;;0.70;0.70;;;14.70;67.40;;;14.91;53.21;95238.28;5014873;28;20196;-78
2022/07/16 04:32:04;;;;;;;0.70;0.70;;;14.70;67.50;;;14.98;53.25;95239.06;5037224;28;20223;-78
2022/07/16 04:34:31;;;;;;;0.50;0.50;;;14.70;67.60;;;15.07;53.17;95234.31;5029442;28;20747;-77
2022/07/16 04:36:58;;;;;;;0.70;0.70;;;14.80;67.70;;;15.15;53.16;95236.72;4999265;28;20232;-78
2022/07/16 04:39:26;;;;;;;0.65;0.65;;;14.80;67.70;;;15.24;53.35;95237.28;5013757;28;20192;-77
2022/07/16 04:41:54;;;;;;;0.60;0.60;;;14.90;68.00;;;15.33;53.49;95238.63;5004311;28;20687;-78
2022/07/16 04:44:21;;;;;;;0.40;0.40;;;15.00;68.00;;;15.41;53.65;95238.38;5011558;28;20225;-77
2022/07/16 04:46:50;;;;;;;0.40;0.40;;;15.10;68.00;;;15.51;53.65;95233.44;4996164;28;20221;-78
2022/07/16 04:49:17;;;;;;;0.57;0.57;;;15.20;68.10;;;15.61;53.78;95227.66;4994440;28;20207;-76
2022/07/16 04:51:44;;;;;;;0.50;0.50;;;15.30;68.20;;;15.72;53.77;95235.91;5026307;28;20240;-78
2022/07/16 04:54:12;;;;;;;0.60;0.60;;;15.40;68.20;;;15.81;53.47;95232.00;5031903;28;20585;-78
2022/07/16 04:56:39;;;;;;;0.50;0.50;;;15.50;68.20;;;15.92;53.47;95230.50;5009417;28;20224;-78
2022/07/16 04:59:06;;;;;;;0.70;0.70;;;15.60;68.20;;;16.03;53.90;95237.72;4979546;28;20197;-77
2022/07/16 05:01:33;;;;;;;0.40;0.40;;;15.70;68.40;;;16.13;53.83;95238.00;5003722;28;20237;-78
2022/07/16 05:04:01;;;;;;;0.60;0.60;;;15.80;68.40;;;16.25;53.28;95229.38;4995343;28;20220;-78
2022/07/16 05:06:28;;;;;;;0.50;0.50;;;15.90;68.40;;;16.38;54.03;95239.00;5012411;28;20227;-77
2022/07/16 05:08:57;;;;;;;0.40;0.40;;;16.00;68.40;;;16.45;53.69;95226.50;5025001;28;20657;-77
2022/07/16 05:11:25;;;;;;;0.50;0.50;;;16.20;68.50;;;16.58;53.82;95230.84;5008879;28;20756;-77
2022/07/16 05:13:53;;;;;;;0.50;0.50;;;16.30;68.50;;;16.68;53.68;95235.63;4979067;28;20291;-78
2022/07/16 05:16:21;;;;;;;0.40;0.40;;;16.40;68.50;;;16.78;53.80;95233.25;5011713;28;20222;-77
2022/07/16 05:18:50;;;;;;;0.50;0.50;;;16.50;68.30;;;16.89;53.52;95235.13;5026709;28;20204;-78
2022/07/16 05:21:17;;;;;;;0.60;0.60;;;16.60;68.20;;;17.00;53.60;95227.50;5009736;28;20215;-78
2022/07/16 05:23:48;;;;;;;0.50;0.50;;;16.70;68.90;;;17.13;53.51;95233.44;4995290;28;20209;-78
2022/07/16 05:26:15;;;;;;;0.52;0.52;;;16.80;67.80;;;17.25;53.16;95230.03;5010292;28;20686;-78
2022/07/16 05:28:48;;;;;;;0.50;0.50;;;16.90;67.30;;;17.35;53.24;95224.97;5000423;28;20204;-77
2022/07/16 05:31:18;;;;;;;0.60;0.60;;;17.10;67.30;;;17.48;52.88;95231.94;4994048;28;20224;-79
2022/07/16 05:33:45;;;;;;;0.50;0.50;;;17.20;67.30;;;17.59;52.93;95233.78;5008503;28;20212;-79
2022/07/16 05:36:12;;;;;;;0.50;0.50;;;17.30;67.10;;;17.68;52.55;95236.91;5010281;28;20234;-79
2022/07/16 05:38:39;;;;;;;0.40;0.40;;;17.50;67.10;;;17.79;52.50;95234.53;4996535;28;20196;-78
2022/07/16 05:41:06;;;;;;;0.50;0.50;;;17.50;66.90;;;17.89;52.81;95230.28;5012608;28;20702;-76
2022/07/16 05:43:33;;;;;;;0.50;0.50;;;17.60;66.70;;;18.00;52.03;95233.19;5027355;28;20228;-77
2022/07/16 05:46:00;;;;;;;0.60;0.60;;;17.70;66.50;;;18.08;52.14;95236.28;5025342;28;20219;-77
2022/07/16 05:48:28;;;;;;;0.40;0.40;;;17.90;66.70;;;18.17;52.35;95235.94;4996676;28;20659;-77
2022/07/16 05:50:56;;;;;;;0.50;0.50;;;18.00;66.40;;;18.22;52.31;95228.09;5001708;28;20238;-78
2022/07/16 05:53:23;;;;;;;0.47;0.47;;;18.10;66.30;;;18.32;51.63;95233.63;5030275;28;20203;-76
2022/07/16 05:55:56;;;;;;;0.50;0.50;;;18.20;66.10;;;18.39;51.43;95230.84;5014784;28;20327;-76
2022/07/16 05:58:23;;;;;;;0.50;0.50;;;18.30;66.00;;;18.46;52.10;95241.34;5014353;28;20196;-76
2022/07/16 06:00:50;;;;;;;0.50;0.50;;;18.30;66.10;;;18.50;51.90;95230.00;5014618;28;20246;-76
2022/07/16 06:03:18;;;;;;;0.50;0.50;;;18.40;66.20;;;18.58;51.72;95228.03;5013435;28;20270;-77
2022/07/16 06:05:45;;;;;;;0.45;0.45;;;18.50;66.20;;;18.63;52.14;95230.81;5011650;28;20671;-77
2022/07/16 06:08:13;;;;;;;0.40;0.40;;;18.50;66.40;;;18.66;51.90;95230.34;5030866;28;20193;-78
2022/07/16 06:10:39;;;;;;;0.40;0.40;;;18.60;66.00;;;18.75;51.60;95236.09;5011348;28;20318;-78
2022/07/16 06:13:07;;;;;;;0.45;0.45;;;18.60;66.10;;;18.78;51.78;95235.63;4978544;28;20201;-78
2022/07/16 06:15:34;;;;;;;0.52;0.52;;;18.70;65.70;;;18.79;51.38;95234.59;5019697;28;20229;-78
2022/07/16 06:18:04;;;;;;;0.40;0.40;;;18.80;65.80;;;18.88;51.15;95246.44;5011294;28;20193;-77
2022/07/16 06:20:32;;;;;;;0.47;0.47;;;18.80;65.60;;;18.91;50.87;95243.38;5011080;28;20629;-77
2022/07/16 06:22:59;;;;;;;0.43;0.43;;;18.90;66.10;;;18.96;50.90;95245.31;5005460;28;20213;-78
2022/07/16 06:25:26;;;;;;;0.50;0.50;;;18.90;65.30;;;18.99;50.97;95242.16;5009691;28;20237;-78
2022/07/16 06:27:53;;;;;;;0.40;0.40;;;19.00;65.30;;;19.06;51.13;95239.38;4999699;28;20659;-78
2022/07/16 06:30:21;;;;;;;0.40;0.40;;;19.00;65.30;;;19.12;51.34;95241.09;5011544;28;20216;-78
2022/07/16 06:32:48;;;;;;;0.40;0.40;;;19.10;65.30;;;19.13;51.45;95246.16;5014388;28;20271;-77
2022/07/16 06:35:15;;;;;;;0.40;0.40;;;19.20;65.30;;;19.17;51.23;95246.50;5025674;28;20209;-77
2022/07/16 06:37:42;;;;;;;0.40;0.40;;;19.30;65.50;;;19.26;51.21;95262.88;4997507;28;20193;-79
2022/07/16 06:40:10;;;;;;;0.40;0.40;;;19.30;65.60;;;19.33;51.19;95255.56;5014318;28;20667;-78
2022/07/16 06:42:38;;;;;;;0.43;0.43;;;19.30;65.50;;;19.45;51.21;95258.97;5031804;28;20198;-79
2022/07/16 06:45:08;;;;;;;0.45;0.45;;;19.40;65.60;;;19.59;51.31;95251.50;5034588;28;20670;-78
2022/07/16 06:47:36;;;;;;;0.40;0.40;;;19.50;65.70;;;19.72;50.87;95261.03;5017728;28;20313;-78
2022/07/16 06:50:03;;;;;;;0.40;0.40;;;19.60;65.80;;;19.82;51.17;95257.72;5032803;28;20634;-77
2022/07/16 06:52:30;;;;;;;0.40;0.40;;;19.70;65.50;;;19.93;50.93;95264.88;5014060;28;20200;-78
2022/07/16 06:54:58;;;;;;;0.40;0.40;;;19.80;65.50;;;20.05;50.06;95269.31;5023198;28;20289;-78
2022/07/16 06:57:25;;;;;;;0.40;0.40;;;19.90;64.90;;;20.13;50.58;95261.69;5016329;28;20295;-78
2022/07/16 06:59:52;;;;;;;0.40;0.40;;;20.10;65.00;;;20.23;49.88;95260.25;5033373;28;20215;-77
2022/07/16 07:02:19;;;;;;;0.40;0.40;;;20.20;64.60;;;20.31;49.84;95268.63;5024518;28;20207;-78
2022/07/16 07:04:47;;;;;;;0.43;0.43;;;20.20;65.70;;;20.38;48.91;95268.44;5031610;28;20239;-77
2022/07/16 07:07:14;;;;;;;0.40;0.40;;;20.40;63.80;;;20.48;49.14;95268.59;5014577;28;20243;-78
2022/07/16 07:09:41;;;;;;;0.40;0.40;;;20.40;63.80;;;20.54;48.16;95276.66;5017364;28;20204;-78
2022/07/16 07:12:09;;;;;;;0.50;0.50;;;20.40;63.80;;;20.63;48.56;95278.66;5014379;28;20315;-78
2022/07/16 07:14:36;;;;;;;0.50;0.50;;;20.50;63.90;;;20.66;48.09;95277.34;5015278;28;20200;-78
2022/07/16 07:17:03;;;;;;;0.43;0.43;;;20.60;64.00;;;20.72;48.71;95289.72;5016862;28;20310;-78
2022/07/16 07:19:31;;;;;;;0.60;0.60;;;20.70;64.00;;;20.74;47.78;95279.63;5013416;28;20603;-78
2022/07/16 07:21:59;;;;;;;0.40;0.40;;;20.70;63.20;;;20.74;47.76;95271.63;5034379;28;20216;-79
2022/07/16 07:24:27;;;;;;;0.40;0.40;;;20.80;62.80;;;20.76;47.07;95272.19;4998998;28;20224;-78
2022/07/16 07:27:15;;;;;;;0.47;0.47;;;20.80;62.40;;;20.72;46.61;95281.72;5033581;28;20215;-78
2022/07/16 07:29:43;;;;;;;0.40;0.40;;;20.80;62.10;;;20.69;46.38;95268.88;5016030;28;20304;-78
2022/07/16 07:32:10;;;;;;;0.40;0.40;;;20.80;61.90;;;20.70;46.28;95275.81;5015891;28;20224;-78
2022/07/16 07:34:37;;;;;;;0.40;0.40;;;20.80;61.70;;;20.74;46.75;95270.84;5048738;28;20200;-78
2022/07/16 07:37:04;;;;;;;0.40;0.40;;;20.80;62.30;;;20.82;46.76;95273.06;5016649;28;20721;-78
2022/07/16 07:39:31;;;;;;;0.40;0.40;;;20.80;62.30;;;20.94;46.99;95271.06;5010747;28;20189;-77
2022/07/16 07:41:58;;;;;;;0.45;0.45;;;20.90;62.40;;;21.03;46.90;95268.78;4988357;28;20790;-78
2022/07/16 07:44:26;;;;;;;0.50;0.50;;;21.00;62.10;;;21.11;46.26;95264.88;4996924;28;20307;-78
2022/07/16 07:46:53;;;;;;;0.50;0.50;;;21.00;61.90;;;21.14;45.73;95268.91;4997109;28;20244;-77
2022/07/16 07:49:20;;;;;;;0.43;0.43;;;21.10;61.70;;;21.14;45.99;95276.91;5027101;28;20216;-78
2022/07/16 07:51:47;;;;;;;0.35;0.35;;;21.10;61.40;;;21.11;45.54;95268.34;5012370;28;20610;-78
2022/07/16 07:54:14;;;;;;;0.55;0.55;;;21.20;61.60;;;21.16;46.25;95266.78;4992564;28;20192;-77
2022/07/16 07:56:42;;;;;;;0.40;0.40;;;21.20;61.80;;;21.22;46.60;95273.78;5012936;28;20579;-79
2022/07/16 07:59:09;;;;;;;0.40;0.40;;;21.20;62.10;;;21.26;47.00;95267.72;4996738;28;20196;-79
2022/07/16 08:01:36;;;;;;;0.47;0.47;;;21.30;62.20;;;21.37;46.47;95267.81;5016209;28;20334;-79
2022/07/16 08:04:04;;;;;;;0.30;0.30;;;21.30;62.10;;;21.36;44.89;95267.00;5012248;28;20593;-79
2022/07/16 08:06:32;;;;;;;0.40;0.40;;;21.40;60.90;;;21.40;45.11;95262.78;4996053;28;20590;-78
2022/07/16 08:08:59;;;;;;;0.50;0.50;;;21.40;60.90;;;21.46;45.37;95263.63;4996579;28;20198;-77
2022/07/16 08:11:32;;;;;;;0.40;0.40;;;21.40;61.00;;;21.50;44.85;95264.75;5012075;28;20730;-77
2022/07/16 08:13:59;;;;;;;0.40;0.40;;;21.40;60.90;;;21.55;44.41;95272.78;4989921;28;20190;-79
2022/07/16 08:16:46;;;;;;;0.40;0.40;;;21.50;60.90;;;21.59;44.40;95263.25;5025091;28;20220;-77
2022/07/16 08:19:13;;;;;;;0.30;0.30;;;21.60;60.70;;;21.64;44.79;95267.84;5015430;28;20620;-79
2022/07/16 08:21:42;;;;;;;0.40;0.40;;;21.60;60.70;;;21.69;43.96;95265.22;5024675;28;20398;-77
2022/07/16 08:26:55;;;;;;;0.40;0.40;;;21.70;60.80;;;21.83;44.21;95265.59;5020214;28;20213;-77
2022/07/16 08:29:22;;;;;;;0.40;0.40;;;21.70;60.60;;;21.90;44.83;95260.84;5015020;28;20205;-78
2022/07/16 08:31:49;;;;;;;0.40;0.40;;;21.80;60.70;;;21.96;43.90;95271.56;5013944;28;20220;-77
2022/07/16 08:34:16;;;;;;;0.40;0.40;;;21.80;60.40;;;22.02;43.85;95263.34;5008167;28;20209;-77
2022/07/16 08:36:44;;;;;;;0.40;0.40;;;21.90;60.50;;;22.11;44.70;95262.88;5013063;28;20223;-78
2022/07/16 08:39:11;;;;;;;0.30;0.30;;;22.00;60.90;;;22.25;44.34;95263.25;5013331;28;20189;-77
2022/07/16 08:41:39;;;;;;;0.50;0.50;;;22.00;60.70;;;22.38;44.62;95263.63;5004581;28;20645;-78
2022/07/16 08:44:07;;;;;;;0.43;0.43;;;22.20;60.60;;;22.49;43.46;95277.06;4995850;28;20216;-78
2022/07/16 08:46:34;;;;;;;0.47;0.47;;;22.30;60.30;;;22.57;43.08;95262.38;5006661;28;20303;-78
2022/07/16 08:49:02;;;;;;;0.35;0.35;;;22.40;59.70;;;22.69;43.74;95262.97;5017895;28;20294;-78
2022/07/16 08:51:35;;;;;;;0.45;0.45;;;22.50;60.10;;;22.87;44.19;95259.06;5018051;28;20258;-77
2022/07/16 08:54:35;;;;;;;0.40;0.40;;;22.60;60.30;;;23.07;43.98;95265.56;4996615;28;20201;-78
2022/07/16 08:57:02;;;;;;;0.40;0.40;;;22.80;60.20;;;23.26;44.11;95253.34;5027649;28;20725;-78
2022/07/16 08:59:29;;;;;;;0.50;0.50;;;23.00;60.30;;;23.39;42.49;95270.78;5020484;28;20192;-79
2022/07/16 09:01:57;;;;;;;0.40;0.40;;;23.10;59.10;;;23.43;41.93;95257.66;5025698;28;20220;-78
2022/07/16 09:04:24;;;;;;;0.40;0.40;;;23.20;58.30;;;23.51;42.59;95267.88;4995240;28;20230;-79
2022/07/16 09:06:52;;;;;;;0.40;0.40;;;23.30;58.90;;;23.60;42.65;95255.53;4979000;28;20228;-79
2022/07/16 09:09:19;;;;;;;0.30;0.30;;;23.40;59.50;;;23.73;41.34;95256.09;4979352;28;20236;-80
2022/07/16 09:11:46;;;;;;;0.28;0.28;;;23.50;58.20;;;23.82;41.47;95262.53;4995468;28;20274;-79
2022/07/16 09:14:16;;;;;;;0.32;0.32;;;23.60;57.90;;;23.87;40.80;95259.84;5011248;28;20283;-79
2022/07/16 09:16:51;;;;;;;0.40;0.40;;;23.70;57.00;;;23.91;41.64;95258.25;4997899;28;20239;-79
2022/07/16 09:19:24;;;;;;;0.40;0.40;;;23.80;57.90;;;23.93;40.89;95274.88;5018976;28;20206;-80
2022/07/16 09:22:00;;;;;;;0.30;0.30;;;23.80;57.20;;;23.94;40.17;95254.28;5011811;28;20212;-79
2022/07/16 09:24:40;;;;;;;0.40;0.40;;;23.90;56.50;;;23.92;39.67;95262.56;5014904;28;20241;-78
2022/07/16 09:27:22;;;;;;;0.40;0.40;;;23.80;55.20;;;23.95;40.33;95255.88;5025387;28;20216;-79
2022/07/16 09:30:02;;;;;;;0.50;0.50;;;23.90;56.40;;;24.03;41.27;95257.22;5012543;28;20709;-79
2022/07/16 09:32:36;;;;;;;0.45;0.45;;;23.90;57.40;;;24.07;41.39;95253.72;5002958;28;20196;-80
2022/07/16 09:35:14;;;;;;;0.38;0.38;;;24.00;57.40;;;24.15;41.57;95257.72;4994911;28;20216;-79
2022/07/16 09:37:52;;;;;;;0.32;0.32;;;24.00;57.70;;;24.20;40.18;95255.03;5020622;28;20290;-80
2022/07/16 09:40:33;;;;;;;0.40;0.40;;;24.00;56.40;;;24.22;39.99;95252.13;5014876;28;20663;-80
2022/07/16 09:43:22;;;;;;;0.40;0.40;;;24.10;56.20;;;24.22;40.12;95257.47;5027439;28;20216;-79
2022/07/16 09:45:59;;;;;;;0.47;0.47;;;24.10;55.70;;;24.18;39.30;95257.22;5012590;28;20232;-79
2022/07/16 09:48:29;;;;;;;0.40;0.40;;;24.10;54.10;;;24.22;40.48;95250.22;5000158;28;20221;-80
2022/07/16 09:51:13;;;;;;;0.50;0.50;;;24.10;55.80;;;24.30;40.89;95252.38;5028489;28;20254;-80
2022/07/16 09:53:43;;;;;;;0.70;0.70;;;24.10;57.10;;;24.38;39.11;95250.22;5031072;28;20200;-80
2022/07/16 09:56:27;;;;;;;0.50;0.50;;;24.30;55.60;;;24.52;39.93;95239.72;5013744;28;20262;-79
2022/07/16 09:58:58;;;;;;;0.38;0.38;;;24.30;56.00;;;24.61;39.60;95251.50;5029777;28;20196;-79
2022/07/16 10:01:32;;;;;;;0.68;0.68;;;24.50;55.70;;;24.74;39.77;95250.13;5015540;28;20349;-79
2022/07/16 10:03:59;;;;;;;0.40;0.40;;;24.50;55.70;;;24.85;39.92;95257.09;5018269;28;20204;-79
2022/07/16 10:06:27;;;;;;;0.35;0.35;;;24.60;56.00;;;24.86;36.84;95249.81;5012754;28;20243;-79
2022/07/16 10:08:54;;;;;;;0.50;0.50;;;24.70;53.20;;;24.84;38.21;95247.41;5032696;28;20192;-80
2022/07/16 10:11:22;;;;;;;0.40;0.40;;;24.70;54.30;;;24.83;37.52;95243.13;5017419;28;20216;-79
2022/07/16 10:13:51;;;;;;;0.35;0.35;;;24.70;52.80;;;24.88;37.60;95236.94;5017107;28;20658;-79
2022/07/16 10:16:40;;;;;;;0.40;0.40;;;24.80;53.10;;;24.82;36.89;95249.56;5017100;28;20216;-78
2022/07/16 10:19:09;;;;;;;0.32;0.32;;;24.80;52.80;;;24.84;37.15;95236.69;5019220;28;20603;-80
2022/07/16 10:21:37;;;;;;;0.52;0.52;;;24.80;53.10;;;24.90;37.40;95232.91;5034107;28;20228;-80
2022/07/16 10:24:16;;;;;;;0.47;0.47;;;24.80;53.40;;;24.98;37.46;95233.41;5012861;28;20566;-80
2022/07/16 10:26:43;;;;;;;0.40;0.40;;;24.80;53.00;;;25.02;37.34;95247.88;5006773;28;20382;-80
2022/07/16 10:29:11;;;;;;;0.57;0.57;;;24.90;53.30;;;25.03;35.71;95244.13;5034644;28;20200;-80
2022/07/16 10:31:38;;;;;;;0.30;0.30;;;24.90;51.50;;;25.00;36.00;95237.44;5001725;28;20228;-80
2022/07/16 10:34:15;;;;;;;0.40;0.40;;;24.90;51.80;;;25.03;37.23;95246.81;5016262;28;20303;-80